Flight Track Log - Related Links

Times and Time Zones

All times are in EDT time to prevent confusion due to time zone crossing. See the KAP320 flight status page for this flight to view local times or setup timezone preferences in your user account.

Time Position Orientation Groundspeed Altitude Reporting Facility
EDT Latitude Longitude Course Direction KTS MPH feet Rate Location/Type
Thu 07:22:00 PM 42.3478 -70.9605 114° Southeast  Level FlightAware Approximate
Thu 07:23:00 PM 42.3163 -70.9341 124° Southeast  Level Estimated
Thu 07:24:00 PM 42.3031 -70.8872 111° Southeast  Level FlightAware Approximate
Thu 07:25:00 PM 42.2900 -70.8402 111° Southeast  Level FlightAware Approximate
Thu 07:25:20 PM 42.3500 -71.0167 102° East 38 44 600  Level KA90
Thu 07:25:56 PM 42.3500 -71.0333 270° West 96 110 1,000 563 Climbing KA90
Thu 07:26:00 PM 42.2577 -70.8155 109° East  Level Estimated
Thu 07:26:56 PM 42.3333 -71.0667 236° Southwest 93 107 1,500  Level KA90
Thu 07:27:00 PM 42.2254 -70.7908 114° Southeast  Level Estimated
Thu 07:27:56 PM 42.3000 -71.0833 200° South 98 113 1,900  Level KA90
Thu 07:28:00 PM 42.1931 -70.7661 116° Southeast  Level Estimated
Thu 07:28:56 PM 42.2833 -71.1000 216° Southwest 110 127 2,300  Level KA90
Thu 07:29:00 PM 42.1855 -70.7170 102° East  Level FlightAware Approximate
Thu 07:30:00 PM 42.1779 -70.6680 102° East  Level FlightAware Approximate
Thu 07:30:02 PM 42.2500 -71.0833 160° South 115 132 2,800  Level KA90
Thu 07:31:00 PM 42.1703 -70.6190 102° East  Level FlightAware Approximate
Thu 07:31:02 PM 42.2167 -71.0500 143° Southeast 122 140 3,300  Level KA90
Thu 07:32:02 PM 42.2000 -71.0333 143° Southeast 118 136 3,800 500 Climbing KA90
Thu 07:33:02 PM 42.1667 -70.9833 132° Southeast 150 173 4,300 450 Climbing KA90
Thu 07:34:02 PM 42.1833 -70.9333 66° East 157 181 4,700 350 Climbing KA90
Thu 07:35:02 PM 42.1667 -70.8667 109° East 169 194 5,000 158 Climbing KA90
Thu 07:35:56 PM 42.1500 -70.8500 143° Southeast 153 176 5,000  Level KA90
Thu 07:36:56 PM 42.1167 -70.8167 143° Southeast 151 174 5,000  Level KA90
Thu 07:38:00 PM 42.1141 -70.7510 93° East  Level FlightAware Approximate
Thu 07:45:00 PM 42.0803 -70.3127 107° East  Level FlightAware Approximate
Thu 07:46:00 PM 42.0669 -70.2537 107° East  Level FlightAware Approximate
Thu 07:47:00 PM 42.0535 -70.1948 107° East  Level FlightAware Approximate
Thu 07:48:00 PM 42.0401 -70.1358 107° East  Level FlightAware Approximate
Thu 07:49:00 PM 42.0266 -70.0770 107° East  Level FlightAware Approximate
Thu 07:50:00 PM 42.0048 -70.0333 180° South  Level FlightAware Approximate
Thu 07:51:00 PM 41.9591 -70.0333 180° South  Level FlightAware Approximate
Thu 07:52:00 PM 41.9133 -70.0333 180° South  Level FlightAware Approximate
Thu 07:53:00 PM 41.8676 -70.0333 180° South  Level FlightAware Approximate
Thu 07:54:00 PM 41.8218 -70.0333 180° South  Level FlightAware Approximate
Thu 07:55:00 PM 41.7761 -70.0333 180° South  Level FlightAware Approximate
Thu 07:56:00 PM 41.7303 -70.0333 180° South  Level FlightAware Approximate
Thu 07:57:00 PM 41.6846 -70.0333 180° South  Level FlightAware Approximate
Thu 07:58:00 PM 41.6388 -70.0333 180° South  Level FlightAware Approximate
Thu 07:59:00 PM 41.5931 -70.0347 189° South  Level FlightAware Approximate
Thu 08:00:00 PM 41.5479 -70.0438 189° South  Level FlightAware Approximate
Thu 08:01:00 PM 41.5025 -70.0500 180° South  Level FlightAware Approximate
Thu 08:02:00 PM 41.4567 -70.0500 180° South  Level FlightAware Approximate
Thu 08:03:00 PM 41.4110 -70.0500 180° South  Level FlightAware Approximate
Thu 08:04:00 PM 41.3652 -70.0500 180° South  Level FlightAware Approximate
Thu 08:05:00 PM 41.3195 -70.0500 180° South  Level FlightAware Approximate
Thu 08:06:00 PM 41.2737 -70.0500 180° South  Level FlightAware Approximate
Thu 08:07:00 PM 41.2500 -70.0500 180° South  Level FlightAware Approximate
Thu 08:08:00 PM 41.2530 -70.0599 180° South  Level Estimated
Thu 08:09:00 PM 41.2530 -70.0599 180° South  Level Estimated

Login

Don't have an account? Register now (free) for customized features, flight alerts, and more!